KCRW/CRW METAR and TAF weather

Enter ICAO airport designator
Station Type Date Time Source
KCRW METAR 2021/09/16 19:54 UTC NOAA

KCRW 161954Z 00000KT 10SM SCT025 28/21 A3007 RMK AO2 SLP174 T02780206


Station Type Date Time Source
KCRW Decoded METAR 2021/09/16 19:54 UTC NOAA

YEAGER AIRPORT, WV, United States (KCRW) 38-22N 081-36W 309M
Sep 16, 2021 - 03:54 PM EDT / 2021.09.16 1954 UTC
Wind: Calm:0
Visibility: 10 mile(s):0
Sky conditions: partly cloudy
Temperature: 82.0 F (27.8 C)
Dew Point: 69.1 F (20.6 C)
Relative Humidity: 64%
Pressure (altimeter): 30.07 in. Hg (1018 hPa)
ob: KCRW 161954Z 00000KT 10SM SCT025 28/21 A3007 RMK AO2 SLP174 T02780206
cycle: 20

Station Type Date Time Source
KCRW TAF 2021/09/16 18:51 UTC NOAA

TAF
AMD KCRW 161748Z 1618/1718 VRB05KT P6SM SCT015
FM161830 00000KT P6SM SCT035
FM170000 00000KT P6SM FEW180
FM170600 00000KT 6SM BR FEW180
FM170800 00000KT 4SM BR SCT003
FM171200 00000KT P6SM FEW007

Example: see airport list